createdAt,value
2023-05-02T00:00:28.040Z,83.51
2023-05-02T00:03:30.642Z,84.37
2023-05-02T00:06:35.429Z,84.88
2023-05-02T00:09:38.054Z,84.61
2023-05-02T00:12:40.520Z,84.60
2023-05-02T00:15:43.222Z,84.45
2023-05-02T00:18:45.719Z,84.85
2023-05-02T00:21:49.999Z,85.04
2023-05-02T00:24:57.313Z,85.30
2023-05-02T00:27:59.879Z,84.91
2023-05-02T00:31:02.607Z,84.70
2023-05-02T00:34:05.190Z,83.78
2023-05-02T00:37:09.061Z,83.09
2023-05-02T00:40:12.651Z,83.08
2023-05-02T00:43:15.117Z,82.92
2023-05-02T00:46:17.983Z,83.45
2023-05-02T00:49:20.911Z,84.01
2023-05-02T00:52:24.753Z,84.85
2023-05-02T00:55:27.284Z,85.21
2023-05-02T00:58:30.704Z,85.09
2023-05-02T01:01:38.198Z,84.68
2023-05-02T01:04:45.729Z,84.85
2023-05-02T01:07:59.722Z,84.93
2023-05-02T01:11:07.828Z,85.19
2023-05-02T01:14:12.547Z,85.01
2023-05-02T01:17:16.635Z,85.00
2023-05-02T01:20:21.605Z,85.15
2023-05-02T01:23:31.454Z,84.84
2023-05-02T01:26:37.536Z,84.89
2023-05-02T01:29:42.327Z,84.82
2023-05-02T01:32:47.270Z,85.28
2023-05-02T01:35:51.736Z,85.46
2023-05-02T01:38:56.326Z,85.68
2023-05-02T01:41:59.153Z,85.55
2023-05-02T01:45:04.269Z,85.55
2023-05-02T01:48:07.851Z,86.09
2023-05-02T01:51:10.676Z,86.39
2023-05-02T01:54:14.335Z,87.03
2023-05-02T01:57:16.711Z,86.76
2023-05-02T02:00:21.460Z,87.09
2023-05-02T02:03:24.627Z,86.89
2023-05-02T02:06:27.788Z,86.76
2023-05-02T02:09:30.602Z,86.72
2023-05-02T02:12:37.038Z,87.24
2023-05-02T02:15:41.209Z,87.14
2023-05-02T02:18:45.802Z,86.98
2023-05-02T02:21:49.225Z,87.67
2023-05-02T02:24:54.526Z,86.86
2023-05-02T02:27:57.668Z,87.27
2023-05-02T02:31:02.406Z,87.11
2023-05-02T02:34:04.956Z,87.75
2023-05-02T02:37:11.865Z,87.74
2023-05-02T02:40:25.034Z,88.24
2023-05-02T02:43:34.058Z,88.32
2023-05-02T02:46:50.066Z,88.08
2023-05-02T02:49:59.785Z,87.57
2023-05-02T02:53:04.281Z,87.32
2023-05-02T02:56:08.011Z,88.30
2023-05-02T02:59:15.280Z,88.54
2023-05-02T03:02:19.994Z,88.31
2023-05-02T03:05:23.646Z,88.23
2023-05-02T03:08:26.076Z,88.20
2023-05-02T03:11:29.587Z,87.69
2023-05-02T03:14:32.055Z,87.92
2023-05-02T03:17:36.024Z,87.40
2023-05-02T03:20:38.906Z,86.72
2023-05-02T03:23:41.411Z,85.87
2023-05-02T03:26:43.905Z,86.07
2023-05-02T03:29:46.413Z,85.69
2023-05-02T03:32:50.526Z,85.36
2023-05-02T03:35:53.143Z,84.96
2023-05-02T03:38:55.954Z,84.25
2023-05-02T03:41:59.508Z,83.84
2023-05-02T03:45:02.068Z,83.58
2023-05-02T03:48:06.318Z,83.76
2023-05-02T03:51:09.919Z,83.44
2023-05-02T03:54:12.396Z,83.65
2023-05-02T03:57:15.062Z,83.26
2023-05-02T04:00:17.829Z,82.85
2023-05-02T04:03:22.573Z,82.83
2023-05-02T04:06:25.275Z,81.92
2023-05-02T04:09:27.781Z,81.61
2023-05-02T04:12:30.760Z,81.23
2023-05-02T04:15:33.414Z,80.85
2023-05-02T04:18:37.306Z,80.13
2023-05-02T04:21:39.823Z,80.50
2023-05-02T04:24:42.470Z,81.03
2023-05-02T04:27:45.347Z,80.77
2023-05-02T04:30:48.079Z,80.03
2023-05-02T04:33:52.063Z,79.56
2023-05-02T04:36:54.636Z,79.69
2023-05-02T04:39:57.331Z,79.66
2023-05-02T04:42:59.917Z,78.63
2023-05-02T04:46:02.474Z,79.43
2023-05-02T04:49:06.473Z,80.11
2023-05-02T04:52:08.999Z,79.99
2023-05-02T04:55:11.522Z,80.31
2023-05-02T04:58:14.099Z,79.45
2023-05-02T05:01:17.666Z,79.53
2023-05-02T05:04:21.647Z,78.43
2023-05-02T05:07:25.699Z,78.54
2023-05-02T05:10:28.310Z,78.22
2023-05-02T05:13:30.817Z,77.55
2023-05-02T05:16:33.443Z,77.34
2023-05-02T05:19:37.295Z,76.98
2023-05-02T05:22:41.419Z,75.80
2023-05-02T05:25:45.750Z,74.45
2023-05-02T05:28:48.517Z,72.83
2023-05-02T05:31:51.115Z,70.71
2023-05-02T05:34:55.007Z,70.77
2023-05-02T05:37:57.611Z,70.51
2023-05-02T05:41:00.143Z,69.28
2023-05-02T05:44:02.653Z,69.47
2023-05-02T05:47:05.307Z,68.49
2023-05-02T05:50:10.885Z,68.00
2023-05-02T05:53:13.850Z,67.08
2023-05-02T05:56:16.413Z,65.83
2023-05-02T05:59:19.031Z,66.08
2023-05-02T06:02:21.666Z,66.13
2023-05-02T06:05:25.569Z,65.96
2023-05-02T06:08:28.363Z,63.57
2023-05-02T06:11:31.092Z,62.83
2023-05-02T06:14:33.630Z,61.30
2023-05-02T06:17:36.174Z,60.63
2023-05-02T06:20:40.071Z,60.95
2023-05-02T06:23:42.727Z,60.62
2023-05-02T06:26:46.200Z,60.77
2023-05-02T06:29:48.674Z,60.98
2023-05-02T06:32:51.525Z,60.10
2023-05-02T06:35:55.607Z,61.30
2023-05-02T06:38:58.115Z,60.52
2023-05-02T06:42:01.427Z,60.20
2023-05-02T06:45:04.305Z,58.20
2023-05-02T06:48:07.480Z,57.28
2023-05-02T06:51:11.551Z,57.64
2023-05-02T06:54:14.842Z,57.47
2023-05-02T06:57:17.488Z,57.33
2023-05-02T07:00:20.845Z,56.52
2023-05-02T07:03:23.614Z,57.97
2023-05-02T07:06:27.883Z,57.57
2023-05-02T07:09:30.846Z,59.10
2023-05-02T07:12:33.656Z,58.42
2023-05-02T07:15:36.165Z,59.47
2023-05-02T07:18:38.731Z,60.66
2023-05-02T07:21:42.773Z,58.51
2023-05-02T07:24:45.562Z,57.42
2023-05-02T07:27:48.145Z,56.34
2023-05-02T07:30:50.622Z,56.65
2023-05-02T07:33:53.174Z,56.72
2023-05-02T07:36:57.374Z,56.29
2023-05-02T07:40:00.349Z,55.65
2023-05-02T07:43:03.499Z,54.97
2023-05-02T07:46:06.808Z,56.08
2023-05-02T07:49:09.428Z,54.90
2023-05-02T07:52:13.323Z,56.46
2023-05-02T07:55:16.161Z,54.76
2023-05-02T07:58:18.679Z,52.93
2023-05-02T08:01:21.300Z,52.99
2023-05-02T08:04:24.014Z,55.47
2023-05-02T08:07:28.092Z,54.90
2023-05-02T08:10:30.861Z,54.51
2023-05-02T08:13:33.372Z,58.16
2023-05-02T08:16:36.207Z,56.76
2023-05-02T08:19:38.910Z,56.15
2023-05-02T08:22:42.780Z,55.52
2023-05-02T08:25:45.415Z,54.74
2023-05-02T08:28:47.958Z,54.95
2023-05-02T08:31:50.589Z,53.09
2023-05-02T08:34:56.168Z,52.58
2023-05-02T08:37:59.992Z,50.05
2023-05-02T08:41:02.828Z,48.23
2023-05-02T08:44:07.523Z,47.33
2023-05-02T08:47:12.212Z,47.46
2023-05-02T08:50:16.965Z,46.81
2023-05-02T08:53:21.198Z,47.01
2023-05-02T08:56:25.199Z,45.79
2023-05-02T08:59:27.900Z,47.23
2023-05-02T09:02:43.365Z,46.29
2023-05-02T09:05:48.177Z,47.14
2023-05-02T09:08:53.331Z,46.77
2023-05-02T09:11:55.950Z,45.63
2023-05-02T09:15:19.207Z,44.27
2023-05-02T09:18:23.683Z,44.13
2023-05-02T09:21:27.465Z,44.29
2023-05-02T09:24:31.353Z,42.69
2023-05-02T09:27:55.832Z,42.12
2023-05-02T09:31:08.183Z,43.46
2023-05-02T09:34:11.782Z,43.12
2023-05-02T09:37:37.304Z,43.72
2023-05-02T09:40:54.511Z,42.90
2023-05-02T09:43:58.084Z,45.37
2023-05-02T09:47:02.171Z,43.52
2023-05-02T09:50:06.330Z,41.16
2023-05-02T09:53:11.234Z,42.02
2023-05-02T09:56:15.269Z,42.16
2023-05-02T09:59:18.372Z,41.75
2023-05-02T10:02:21.864Z,42.00
2023-05-02T10:05:24.943Z,40.92
2023-05-02T10:08:28.586Z,44.06
2023-05-02T10:11:32.892Z,44.81
2023-05-02T10:14:41.264Z,46.77
2023-05-02T10:17:50.521Z,47.36
2023-05-02T10:20:57.860Z,47.60
2023-05-02T10:24:03.413Z,48.04
2023-05-02T10:27:07.625Z,47.72
2023-05-02T10:30:10.726Z,44.94
2023-05-02T10:33:14.871Z,43.75
2023-05-02T10:36:22.417Z,42.43
2023-05-02T10:39:25.200Z,43.17
2023-05-02T10:42:29.480Z,42.71
2023-05-02T10:45:33.173Z,40.54
2023-05-02T10:48:35.764Z,39.11
2023-05-02T10:51:39.512Z,37.03
2023-05-02T10:54:42.128Z,37.51
2023-05-02T10:58:23.467Z,38.00
2023-05-02T11:01:42.078Z,39.52
2023-05-02T11:05:01.933Z,39.85
2023-05-02T11:08:32.959Z,38.93
2023-05-02T11:11:43.166Z,38.48
2023-05-02T11:14:49.625Z,36.99
2023-05-02T11:18:01.892Z,36.35
2023-05-02T11:21:29.584Z,34.20
2023-05-02T11:24:39.449Z,33.12
2023-05-02T11:27:43.914Z,36.19
2023-05-02T11:30:48.726Z,37.35
2023-05-02T11:33:57.526Z,36.85
2023-05-02T11:37:00.267Z,38.46
2023-05-02T11:40:11.929Z,36.21
2023-05-02T11:43:15.700Z,34.86
2023-05-02T11:46:21.059Z,35.02
2023-05-02T11:49:23.921Z,33.23
2023-05-02T11:52:26.689Z,32.19
2023-05-02T11:55:29.416Z,35.27
2023-05-02T11:58:33.867Z,35.39
2023-05-02T12:01:38.192Z,37.01
2023-05-02T12:04:43.745Z,36.17
2023-05-02T12:07:49.168Z,36.27
2023-05-02T12:10:53.442Z,38.53
2023-05-02T12:13:56.056Z,37.66
2023-05-02T12:17:00.814Z,35.91
2023-05-02T12:20:05.211Z,34.40
2023-05-02T12:23:08.000Z,33.74
2023-05-02T12:26:21.320Z,32.96
2023-05-02T12:29:23.855Z,33.51
2023-05-02T12:32:32.370Z,33.52
2023-05-02T12:35:36.098Z,38.84
2023-05-02T12:38:38.699Z,37.83
2023-05-02T12:41:43.770Z,39.49
2023-05-02T12:44:48.222Z,39.94
2023-05-02T12:47:52.200Z,38.24
2023-05-02T12:50:56.039Z,38.92
2023-05-02T12:53:58.670Z,37.04
2023-05-02T12:57:08.778Z,36.41
2023-05-02T13:00:13.143Z,35.63
2023-05-02T13:03:17.050Z,32.10
2023-05-02T13:06:19.848Z,27.75
2023-05-02T13:09:22.375Z,28.03
2023-05-02T13:12:24.910Z,30.18
2023-05-02T13:15:27.521Z,28.84
2023-05-02T13:18:31.578Z,30.94
2023-05-02T13:21:34.212Z,29.32
2023-05-02T13:24:36.741Z,28.65
2023-05-02T13:27:41.034Z,32.93
2023-05-02T13:30:43.650Z,32.22
2023-05-02T13:33:47.639Z,30.74
2023-05-02T13:36:50.208Z,24.46
2023-05-02T13:39:52.794Z,26.60
2023-05-02T13:42:55.316Z,29.96
2023-05-02T13:45:57.986Z,32.86
2023-05-02T13:49:02.454Z,27.81
2023-05-02T13:52:05.215Z,21.41
2023-05-02T13:55:08.412Z,19.25
2023-05-02T13:58:11.302Z,20.96
2023-05-02T14:01:13.959Z,26.42
2023-05-02T14:04:18.107Z,25.46
2023-05-02T14:07:20.791Z,22.08
2023-05-02T14:10:23.378Z,22.94
2023-05-02T14:13:26.268Z,21.63
2023-05-02T14:16:30.706Z,17.36
2023-05-02T14:19:34.793Z,23.26
2023-05-02T14:22:37.393Z,29.41
2023-05-02T14:25:40.098Z,28.60
2023-05-02T14:28:42.711Z,20.67
2023-05-02T14:31:46.064Z,16.67
2023-05-02T14:34:50.062Z,18.26
2023-05-02T14:37:52.542Z,16.82
2023-05-02T14:40:55.371Z,17.71
2023-05-02T14:43:58.083Z,22.93
2023-05-02T14:47:00.891Z,21.17
2023-05-02T14:50:06.307Z,20.22
2023-05-02T14:53:09.058Z,22.29
2023-05-02T14:56:17.136Z,18.41
2023-05-02T14:59:20.090Z,18.73
2023-05-02T15:02:22.787Z,18.61
2023-05-02T15:05:26.678Z,17.13
2023-05-02T15:08:29.312Z,17.10
2023-05-02T15:11:31.893Z,22.80
2023-05-02T15:14:34.494Z,18.13
2023-05-02T15:17:36.999Z,17.13
2023-05-02T15:20:41.051Z,16.32
2023-05-02T15:23:43.975Z,15.07
2023-05-02T15:26:46.673Z,13.36
2023-05-02T15:29:49.257Z,16.04
2023-05-02T15:32:51.853Z,17.95
2023-05-02T15:35:57.680Z,14.76
2023-05-02T15:39:00.212Z,14.95
2023-05-02T15:42:03.757Z,17.87
2023-05-02T15:45:07.491Z,16.86
2023-05-02T15:48:10.306Z,15.14
2023-05-02T15:51:14.058Z,14.76
2023-05-02T15:54:20.161Z,17.73
2023-05-02T15:57:23.045Z,16.39
2023-05-02T16:00:25.821Z,20.03
2023-05-02T16:03:28.587Z,21.42
2023-05-02T16:06:33.380Z,18.00
2023-05-02T16:09:36.304Z,18.80
2023-05-02T16:12:38.982Z,16.72
2023-05-02T16:15:41.534Z,16.81
2023-05-02T16:18:44.426Z,19.11
2023-05-02T16:21:48.357Z,16.75
2023-05-02T16:24:50.909Z,16.26
2023-05-02T16:27:53.610Z,16.59
2023-05-02T16:30:56.406Z,14.17
2023-05-02T16:33:59.090Z,14.27
2023-05-02T16:37:03.850Z,14.18
2023-05-02T16:40:08.088Z,14.98
2023-05-02T16:43:10.829Z,14.55
2023-05-02T16:46:13.465Z,14.60
2023-05-02T16:49:16.063Z,13.67
2023-05-02T16:52:19.955Z,15.81
2023-05-02T16:55:22.878Z,14.68
2023-05-02T16:58:25.648Z,19.20
2023-05-02T17:01:28.301Z,24.00
2023-05-02T17:04:30.839Z,24.56
2023-05-02T17:07:34.737Z,26.68
2023-05-02T17:10:37.307Z,27.63
2023-05-02T17:13:40.178Z,28.07
2023-05-02T17:16:42.701Z,28.72
2023-05-02T17:19:45.622Z,29.83
2023-05-02T17:22:49.416Z,30.23
2023-05-02T17:25:52.243Z,30.84
2023-05-02T17:28:54.698Z,32.03
2023-05-02T17:32:00.421Z,32.11
2023-05-02T17:35:03.085Z,32.69
2023-05-02T17:38:07.079Z,32.69
2023-05-02T17:41:09.656Z,32.49
2023-05-02T17:44:12.171Z,32.30
2023-05-02T17:47:14.791Z,32.40
2023-05-02T17:50:17.374Z,32.36
2023-05-02T17:53:21.305Z,32.45
2023-05-02T17:56:23.835Z,34.67
2023-05-02T17:59:27.345Z,36.03
2023-05-02T18:02:30.121Z,36.90
2023-05-02T18:05:38.326Z,37.69
2023-05-02T18:08:42.263Z,38.09
2023-05-02T18:11:44.894Z,38.68
2023-05-02T18:14:48.245Z,38.90
2023-05-02T18:17:50.649Z,39.07
2023-05-02T18:20:53.293Z,39.70
2023-05-02T18:23:57.581Z,40.70
2023-05-02T18:27:00.140Z,40.37
2023-05-02T18:30:03.605Z,41.15
2023-05-02T18:33:06.729Z,41.51
2023-05-02T18:36:09.595Z,42.20
2023-05-02T18:39:14.298Z,42.50
2023-05-02T18:42:16.866Z,43.35
2023-05-02T18:45:19.673Z,44.05
2023-05-02T18:48:22.549Z,44.58
2023-05-02T18:51:25.196Z,45.44
2023-05-02T18:54:29.264Z,45.83
2023-05-02T18:57:33.561Z,46.53
2023-05-02T19:00:37.209Z,46.72
2023-05-02T19:03:39.999Z,47.38
2023-05-02T19:06:42.777Z,47.58
2023-05-02T19:09:46.730Z,47.53
2023-05-02T19:12:49.298Z,47.25
2023-05-02T19:15:51.994Z,47.47
2023-05-02T19:18:55.846Z,47.28
2023-05-02T19:21:58.652Z,47.23
2023-05-02T19:25:06.587Z,47.52
2023-05-02T19:28:09.170Z,47.64
2023-05-02T19:31:12.192Z,47.41
2023-05-02T19:34:14.715Z,47.79
2023-05-02T19:37:17.255Z,47.88
2023-05-02T19:40:21.154Z,48.05
2023-05-02T19:43:26.315Z,48.06
2023-05-02T19:46:30.142Z,48.63
2023-05-02T19:49:32.853Z,48.51
2023-05-02T19:52:37.361Z,48.81
2023-05-02T19:55:41.509Z,48.83
2023-05-02T19:58:44.410Z,49.26
2023-05-02T20:01:47.425Z,50.31
2023-05-02T20:04:50.067Z,51.30
2023-05-02T20:07:52.832Z,51.96
2023-05-02T20:10:56.985Z,51.64
2023-05-02T20:13:59.796Z,52.04
2023-05-02T20:17:02.459Z,52.10
2023-05-02T20:20:08.107Z,52.24
2023-05-02T20:23:10.704Z,52.56
2023-05-02T20:26:16.344Z,51.56
2023-05-02T20:29:18.963Z,52.12
2023-05-02T20:32:21.625Z,52.17
2023-05-02T20:35:24.515Z,51.69
2023-05-02T20:38:27.039Z,51.31
2023-05-02T20:41:32.152Z,51.59
2023-05-02T20:44:34.856Z,53.03
2023-05-02T20:47:37.515Z,54.03
2023-05-02T20:50:40.102Z,54.93
2023-05-02T20:53:42.674Z,54.66
2023-05-02T20:56:46.596Z,54.83
2023-05-02T20:59:49.176Z,54.86
2023-05-02T21:02:52.197Z,55.10
2023-05-02T21:05:55.587Z,54.95
2023-05-02T21:08:58.447Z,55.23
2023-05-02T21:12:02.570Z,55.78
2023-05-02T21:15:05.989Z,56.69
2023-05-02T21:18:08.670Z,57.96
2023-05-02T21:21:11.186Z,58.20
2023-05-02T21:24:13.816Z,59.28
2023-05-02T21:27:17.688Z,59.28
2023-05-02T21:30:20.442Z,60.17
2023-05-02T21:33:22.976Z,60.54
2023-05-02T21:36:25.858Z,60.64
2023-05-02T21:39:28.396Z,60.96
2023-05-02T21:42:32.346Z,60.08
2023-05-02T21:45:34.832Z,60.86
2023-05-02T21:48:37.365Z,60.24
2023-05-02T21:51:40.642Z,60.38
2023-05-02T21:54:46.856Z,59.83
2023-05-02T21:57:50.832Z,59.19
2023-05-02T22:00:53.372Z,60.48
2023-05-02T22:03:56.529Z,60.92
2023-05-02T22:06:59.516Z,61.26
2023-05-02T22:10:02.401Z,62.16
2023-05-02T22:13:09.344Z,61.42
2023-05-02T22:16:12.110Z,61.32
2023-05-02T22:19:15.032Z,60.82
2023-05-02T22:22:17.588Z,61.04
2023-05-02T22:25:20.171Z,60.77
2023-05-02T22:28:24.008Z,61.42
2023-05-02T22:31:27.144Z,61.64
2023-05-02T22:34:29.696Z,62.58
2023-05-02T22:37:32.225Z,62.37
2023-05-02T22:40:34.804Z,62.61
2023-05-02T22:43:38.620Z,62.96
2023-05-02T22:46:41.305Z,62.79
2023-05-02T22:49:44.539Z,62.76
2023-05-02T22:52:49.149Z,63.18
2023-05-02T22:55:52.263Z,63.61
2023-05-02T22:58:56.204Z,63.49
2023-05-02T23:02:00.564Z,63.81
2023-05-02T23:05:04.087Z,64.63
2023-05-02T23:08:06.551Z,64.98
2023-05-02T23:11:09.029Z,64.80
2023-05-02T23:14:12.906Z,65.29
2023-05-02T23:17:15.469Z,65.35
2023-05-02T23:20:20.333Z,64.88
2023-05-02T23:23:22.815Z,65.24
2023-05-02T23:26:25.560Z,65.58
2023-05-02T23:29:29.429Z,65.87
2023-05-02T23:32:32.201Z,66.27
2023-05-02T23:35:34.969Z,66.63
2023-05-02T23:38:37.561Z,66.67
2023-05-02T23:41:40.288Z,66.16
2023-05-02T23:44:44.590Z,66.55
2023-05-02T23:47:47.460Z,67.38
2023-05-02T23:50:50.066Z,67.19
2023-05-02T23:53:52.553Z,67.29
2023-05-02T23:56:56.023Z,67.31
2023-05-02T23:59:59.938Z,67.71
